Archival Weather

Heathrow

London, United Kingdom (EGLL)

Report from: Thursday, September 21, 2023 8:20 PM BST
Current time: Sunday, July 14, 2024 11:06 AM BST

Current weather – Weather history – Daily summaries
Weather forecast

Temperature14.0°C (57.2°F)
Dew point12.0°C (53.6°F)
Winds 4 kts (2.1 m/s, 4.6 mph) Vrb
Winds variableWinds variable from East (100°) to Southwest (220°)
Visibility6.2 mi. (10 km)
Clouds Few clouds 3,000 ft. (914 m)
Scattered clouds 4,500 ft. (1,372 m)
Altimeter29.41 in.Hg (996 mB)
Relative humidity88 %
Density altitude666 ft. (203 m)
Remarks Fully automated report
Corrected report
No significant changes expected in the next two hours
Flight conditions Visual Meteorological Conditions
Raw dataCOR EGLL 211920Z AUTO 16004KT 100V220 9999 FEW030 SCT045 14/12 Q0996 NOSIG
An error has occurred. This application may no longer respond until reloaded. Reload 🗙